createdAt,value
2019-03-16T00:00:30.660Z,4.57
2019-03-16T00:02:58.329Z,5.03
2019-03-16T00:05:26.317Z,5.30
2019-03-16T00:07:54.178Z,4.77
2019-03-16T00:10:21.918Z,4.10
2019-03-16T00:12:49.695Z,4.13
2019-03-16T00:15:17.216Z,6.00
2019-03-16T00:17:45.000Z,4.23
2019-03-16T00:20:15.866Z,4.63
2019-03-16T00:22:43.927Z,4.23
2019-03-16T00:25:11.985Z,5.00
2019-03-16T00:27:41.165Z,4.40
2019-03-16T00:30:08.880Z,5.00
2019-03-16T00:32:36.887Z,4.67
2019-03-16T00:35:04.951Z,4.93
2019-03-16T00:37:32.860Z,4.47
2019-03-16T00:40:00.381Z,5.37
2019-03-16T00:42:28.099Z,4.73
2019-03-16T00:44:57.492Z,4.53
2019-03-16T00:47:25.017Z,5.57
2019-03-16T00:49:53.317Z,4.47
2019-03-16T00:52:21.083Z,3.77
2019-03-16T00:54:48.920Z,4.23
2019-03-16T00:57:17.155Z,5.57
2019-03-16T00:59:44.771Z,4.50
2019-03-16T01:02:12.433Z,4.70
2019-03-16T01:04:40.834Z,4.70
2019-03-16T01:07:09.901Z,4.40
2019-03-16T01:09:37.526Z,4.67
2019-03-16T01:12:05.363Z,4.50
2019-03-16T01:14:33.105Z,4.63
2019-03-16T01:17:00.915Z,5.33
2019-03-16T01:19:28.643Z,4.33
2019-03-16T01:21:56.564Z,4.27
2019-03-16T01:24:23.988Z,4.80
2019-03-16T01:26:51.795Z,4.50
2019-03-16T01:29:20.007Z,4.17
2019-03-16T01:31:48.766Z,4.83
2019-03-16T01:34:16.575Z,4.13
2019-03-16T01:36:45.689Z,4.47
2019-03-16T01:39:14.010Z,5.00
2019-03-16T01:41:41.405Z,4.70
2019-03-16T01:44:10.662Z,4.97
2019-03-16T01:46:38.826Z,4.03
2019-03-16T01:49:07.036Z,4.83
2019-03-16T01:51:34.614Z,4.77
2019-03-16T01:54:02.750Z,4.80
2019-03-16T01:56:30.322Z,4.23
2019-03-16T01:58:58.101Z,4.20
2019-03-16T02:01:26.169Z,4.57
2019-03-16T02:03:53.933Z,3.83
2019-03-16T02:06:21.911Z,3.57
2019-03-16T02:08:49.584Z,4.47
2019-03-16T02:11:16.999Z,4.43
2019-03-16T02:13:48.933Z,4.60
2019-03-16T02:16:17.043Z,4.37
2019-03-16T02:18:44.793Z,4.83
2019-03-16T02:21:12.769Z,4.50
2019-03-16T02:23:40.648Z,4.17
2019-03-16T02:26:09.750Z,3.87
2019-03-16T02:28:38.154Z,5.70
2019-03-16T02:31:06.280Z,3.57
2019-03-16T02:33:35.202Z,4.63
2019-03-16T02:36:05.297Z,4.27
2019-03-16T02:38:33.140Z,4.00
2019-03-16T02:41:01.164Z,4.43
2019-03-16T02:43:31.239Z,4.97
2019-03-16T02:45:59.203Z,5.33
2019-03-16T02:48:28.444Z,4.73
2019-03-16T02:50:56.403Z,3.83
2019-03-16T02:53:24.751Z,4.60
2019-03-16T02:55:52.637Z,5.03
2019-03-16T02:58:20.443Z,4.47
2019-03-16T03:00:48.298Z,5.50
2019-03-16T03:03:28.665Z,4.33
2019-03-16T03:05:45.891Z,5.00
2019-03-16T03:08:13.663Z,5.23
2019-03-16T03:10:41.243Z,4.93
2019-03-16T03:13:13.390Z,4.97
2019-03-16T03:15:38.487Z,4.60
2019-03-16T03:18:07.040Z,4.50
2019-03-16T03:20:34.476Z,4.60
2019-03-16T03:23:02.552Z,4.50
2019-03-16T03:25:30.268Z,4.60
2019-03-16T03:27:58.152Z,4.27
2019-03-16T03:30:26.016Z,4.17
2019-03-16T03:32:53.676Z,4.07
2019-03-16T03:35:21.550Z,5.60
2019-03-16T03:37:49.013Z,4.87
2019-03-16T03:40:16.807Z,5.30
2019-03-16T03:42:44.633Z,4.30
2019-03-16T03:45:12.205Z,4.27
2019-03-16T03:47:41.211Z,4.90
2019-03-16T03:50:09.521Z,4.17
2019-03-16T03:52:37.001Z,5.10
2019-03-16T03:55:05.461Z,4.43
2019-03-16T03:57:33.800Z,3.87
2019-03-16T04:00:01.669Z,6.00
2019-03-16T04:02:29.293Z,4.97
2019-03-16T04:04:59.379Z,4.77
2019-03-16T04:07:27.196Z,5.73
2019-03-16T04:09:55.097Z,4.90
2019-03-16T04:12:22.841Z,4.30
2019-03-16T04:14:51.961Z,3.80
2019-03-16T04:17:19.913Z,5.17
2019-03-16T04:19:47.828Z,4.43
2019-03-16T04:22:15.609Z,4.40
2019-03-16T04:24:45.241Z,4.60
2019-03-16T04:27:16.191Z,4.97
2019-03-16T04:29:42.505Z,4.77
2019-03-16T04:32:10.974Z,4.40
2019-03-16T04:34:38.942Z,4.47
2019-03-16T04:37:08.159Z,5.13
2019-03-16T04:39:35.903Z,5.23
2019-03-16T04:42:03.641Z,4.80
2019-03-16T04:44:31.436Z,4.23
2019-03-16T04:47:00.007Z,5.43
2019-03-16T04:49:29.100Z,4.73
2019-03-16T04:51:57.115Z,4.77
2019-03-16T04:54:25.010Z,5.47
2019-03-16T04:56:53.039Z,5.20
2019-03-16T04:59:21.314Z,5.93
2019-03-16T05:01:48.855Z,5.00
2019-03-16T05:04:16.628Z,5.13
2019-03-16T05:06:44.667Z,4.80
2019-03-16T05:09:12.280Z,4.20
2019-03-16T05:11:40.104Z,5.00
2019-03-16T05:14:07.528Z,3.97
2019-03-16T05:16:38.231Z,4.40
2019-03-16T05:19:06.171Z,4.43
2019-03-16T05:21:35.512Z,5.30
2019-03-16T05:24:03.343Z,3.70
2019-03-16T05:26:30.812Z,4.97
2019-03-16T05:28:58.469Z,3.70
2019-03-16T05:31:26.203Z,4.50
2019-03-16T05:33:54.409Z,4.93
2019-03-16T05:36:21.864Z,4.03
2019-03-16T05:38:49.284Z,5.07
2019-03-16T05:41:17.071Z,4.33
2019-03-16T05:43:45.154Z,4.30
2019-03-16T05:46:13.096Z,3.40
2019-03-16T05:48:40.655Z,5.07
2019-03-16T05:51:09.203Z,3.83
2019-03-16T05:53:37.123Z,3.20
2019-03-16T05:56:04.917Z,4.60
2019-03-16T05:58:32.627Z,3.73
2019-03-16T06:01:00.376Z,3.33
2019-03-16T06:03:28.791Z,5.03
2019-03-16T06:05:56.370Z,4.43
2019-03-16T06:08:24.105Z,4.23
2019-03-16T06:10:52.085Z,4.70
2019-03-16T06:13:23.094Z,3.57
2019-03-16T06:15:51.397Z,4.23
2019-03-16T06:18:21.620Z,4.73
2019-03-16T06:20:49.132Z,4.20
2019-03-16T06:23:17.136Z,3.87
2019-03-16T06:25:44.978Z,4.00
2019-03-16T06:28:14.850Z,3.63
2019-03-16T06:30:42.405Z,3.57
2019-03-16T06:33:10.579Z,3.27
2019-03-16T06:35:39.057Z,4.07
2019-03-16T06:38:07.457Z,3.43
2019-03-16T06:40:36.033Z,4.90
2019-03-16T06:43:04.787Z,3.30
2019-03-16T06:45:32.422Z,3.87
2019-03-16T06:48:00.377Z,3.80
2019-03-16T06:50:28.667Z,4.07
2019-03-16T06:59:05.987Z,4.50
2019-03-16T07:05:03.902Z,3.77
2019-03-16T07:07:32.130Z,4.53
2019-03-16T07:10:02.486Z,5.10
2019-03-16T07:12:30.498Z,4.47
2019-03-16T07:14:58.785Z,3.57
2019-03-16T07:17:26.565Z,3.90
2019-03-16T07:19:54.840Z,3.90
2019-03-16T07:22:24.140Z,3.40
2019-03-16T07:24:52.016Z,3.03
2019-03-16T07:27:26.111Z,3.90
2019-03-16T07:29:50.258Z,3.93
2019-03-16T07:32:26.097Z,4.70
2019-03-16T07:34:54.941Z,4.27
2019-03-16T07:37:22.735Z,3.60
2019-03-16T07:39:51.011Z,4.13
2019-03-16T07:42:18.978Z,3.83
2019-03-16T07:48:13.853Z,3.07
2019-03-16T07:50:41.972Z,3.47
2019-03-16T07:53:10.059Z,4.23
2019-03-16T07:55:38.259Z,4.07
2019-03-16T07:58:07.358Z,4.03
2019-03-16T08:00:36.231Z,4.10
2019-03-16T08:03:04.236Z,3.50
2019-03-16T08:05:32.176Z,4.30
2019-03-16T08:08:00.026Z,3.53
2019-03-16T08:10:28.622Z,3.90
2019-03-16T08:12:56.782Z,3.87
2019-03-16T08:15:28.350Z,4.50
2019-03-16T08:17:56.781Z,4.37
2019-03-16T08:20:31.454Z,3.70
2019-03-16T08:22:59.348Z,4.07
2019-03-16T08:25:30.244Z,4.13
2019-03-16T08:27:59.558Z,4.10
2019-03-16T08:30:27.071Z,3.30
2019-03-16T08:32:55.026Z,3.83
2019-03-16T08:35:22.776Z,3.60
2019-03-16T08:37:50.872Z,3.23
2019-03-16T08:40:19.023Z,3.43
2019-03-16T08:42:51.266Z,3.43
2019-03-16T08:45:17.683Z,3.37
2019-03-16T08:47:46.633Z,3.30
2019-03-16T08:50:18.572Z,3.07
2019-03-16T08:52:49.400Z,2.97
2019-03-16T08:55:17.307Z,2.70
2019-03-16T08:57:45.324Z,2.93
2019-03-16T09:00:13.480Z,2.03
2019-03-16T09:02:41.660Z,2.20
2019-03-16T09:05:09.763Z,2.20
2019-03-16T09:07:37.657Z,2.87
2019-03-16T09:10:06.196Z,1.97
2019-03-16T09:12:34.862Z,2.40
2019-03-16T09:15:05.600Z,1.73
2019-03-16T09:17:33.320Z,2.53
2019-03-16T09:20:01.461Z,2.03
2019-03-16T09:22:36.399Z,2.50
2019-03-16T09:25:04.499Z,2.60
2019-03-16T09:27:32.709Z,3.97
2019-03-16T09:30:01.927Z,3.90
2019-03-16T09:32:30.360Z,4.20
2019-03-16T09:34:58.600Z,4.03
2019-03-16T09:37:26.553Z,3.30
2019-03-16T09:40:03.296Z,2.60
2019-03-16T09:42:36.724Z,3.27
2019-03-16T09:45:10.462Z,2.93
2019-03-16T09:47:38.542Z,2.67
2019-03-16T09:50:09.849Z,2.70
2019-03-16T09:52:43.568Z,2.63
2019-03-16T09:55:12.522Z,2.20
2019-03-16T09:57:43.225Z,3.13
2019-03-16T10:00:14.707Z,2.43
2019-03-16T10:02:50.559Z,2.60
2019-03-16T10:05:18.891Z,2.40
2019-03-16T10:07:46.763Z,2.33
2019-03-16T10:10:14.835Z,2.23
2019-03-16T10:12:43.103Z,2.37
2019-03-16T10:15:10.935Z,1.33
2019-03-16T10:17:38.645Z,1.93
2019-03-16T10:20:10.321Z,1.80
2019-03-16T10:22:42.806Z,1.23
2019-03-16T10:25:13.556Z,1.20
2019-03-16T10:27:43.981Z,1.10
2019-03-16T10:30:12.157Z,0.60
2019-03-16T10:32:40.266Z,1.20
2019-03-16T10:35:08.460Z,1.27
2019-03-16T10:37:37.294Z,1.27
2019-03-16T10:40:06.660Z,2.00
2019-03-16T10:42:34.710Z,1.73
2019-03-16T10:45:10.784Z,1.30
2019-03-16T10:47:41.814Z,1.43
2019-03-16T10:50:20.208Z,1.87
2019-03-16T10:52:49.048Z,1.80
2019-03-16T10:55:27.662Z,1.53
2019-03-16T10:58:05.136Z,1.97
2019-03-16T11:00:37.053Z,1.90
2019-03-16T11:03:05.470Z,2.27
2019-03-16T11:05:48.779Z,1.77
2019-03-16T11:08:23.275Z,2.03
2019-03-16T11:10:56.187Z,1.83
2019-03-16T11:13:28.509Z,2.37
2019-03-16T11:16:09.630Z,3.10
2019-03-16T11:18:37.947Z,2.27
2019-03-16T11:21:14.019Z,3.20
2019-03-16T11:23:50.635Z,2.60
2019-03-16T11:26:20.260Z,2.13
2019-03-16T11:28:48.739Z,2.30
2019-03-16T11:31:19.678Z,2.57
2019-03-16T11:33:48.538Z,2.63
2019-03-16T11:39:33.926Z,2.63
2019-03-16T11:42:04.795Z,2.40
2019-03-16T11:44:39.078Z,2.50
2019-03-16T11:47:07.187Z,2.70
2019-03-16T11:49:36.303Z,2.10
2019-03-16T11:52:04.939Z,2.23
2019-03-16T11:54:33.039Z,2.37
2019-03-16T11:57:07.566Z,1.90
2019-03-16T11:59:33.775Z,2.10
2019-03-16T12:02:05.461Z,2.37
2019-03-16T12:04:31.449Z,2.70
2019-03-16T12:06:59.498Z,2.50
2019-03-16T12:09:29.813Z,2.30
2019-03-16T12:11:57.712Z,2.70
2019-03-16T12:14:26.214Z,1.90
2019-03-16T12:16:56.705Z,2.27
2019-03-16T12:19:25.083Z,7.23
2019-03-16T12:21:53.105Z,12.57
2019-03-16T12:24:20.785Z,8.27
2019-03-16T12:26:49.082Z,6.70
2019-03-16T12:29:17.147Z,4.60
2019-03-16T12:31:45.028Z,5.70
2019-03-16T12:34:13.137Z,4.60
2019-03-16T12:36:41.282Z,2.47
2019-03-16T12:39:09.469Z,2.50
2019-03-16T12:41:37.039Z,2.47
2019-03-16T12:44:04.582Z,3.00
2019-03-16T12:46:32.780Z,2.50
2019-03-16T12:49:06.406Z,2.23
2019-03-16T12:51:33.965Z,2.93
2019-03-16T12:54:02.377Z,2.90
2019-03-16T12:59:47.070Z,2.30
2019-03-16T13:02:14.692Z,3.03
2019-03-16T13:04:42.697Z,3.13
2019-03-16T13:08:06.675Z,2.70
2019-03-16T13:10:42.934Z,2.90
2019-03-16T13:13:14.842Z,2.77
2019-03-16T13:15:44.022Z,2.70
2019-03-16T13:18:12.157Z,2.63
2019-03-16T13:20:40.230Z,2.90
2019-03-16T13:23:07.940Z,3.10
2019-03-16T13:25:37.953Z,2.90
2019-03-16T13:28:06.287Z,2.87
2019-03-16T13:30:33.819Z,2.80
2019-03-16T13:33:02.625Z,3.30
2019-03-16T13:35:30.527Z,3.30
2019-03-16T13:37:58.072Z,3.67
2019-03-16T13:40:25.868Z,3.60
2019-03-16T13:42:53.499Z,4.10
2019-03-16T13:45:21.537Z,4.20
2019-03-16T13:47:51.593Z,4.50
2019-03-16T13:50:18.268Z,4.30
2019-03-16T13:52:46.914Z,4.97
2019-03-16T13:55:14.446Z,5.20
2019-03-16T13:57:42.187Z,7.17
2019-03-16T14:00:12.300Z,6.23
2019-03-16T14:02:40.643Z,6.27
2019-03-16T14:05:08.305Z,6.50
2019-03-16T14:07:36.614Z,7.20
2019-03-16T14:10:05.711Z,7.00
2019-03-16T14:12:33.798Z,7.60
2019-03-16T14:15:01.668Z,8.90
2019-03-16T14:17:30.223Z,9.00
2019-03-16T14:19:57.766Z,10.10
2019-03-16T14:22:25.610Z,10.37
2019-03-16T14:24:53.569Z,10.50
2019-03-16T14:27:21.616Z,11.70
2019-03-16T14:29:49.707Z,11.20
2019-03-16T14:32:17.449Z,13.30
2019-03-16T14:34:45.884Z,12.37
2019-03-16T14:37:14.963Z,12.17
2019-03-16T14:39:43.368Z,14.43
2019-03-16T14:42:11.298Z,12.63
2019-03-16T14:45:12.108Z,13.97
2019-03-16T14:47:39.526Z,14.97
2019-03-16T14:50:20.412Z,15.13
2019-03-16T14:52:49.646Z,15.33
2019-03-16T14:55:17.564Z,16.07
2019-03-16T14:57:45.355Z,15.37
2019-03-16T15:00:18.202Z,16.10
2019-03-16T15:02:46.729Z,16.03
2019-03-16T15:05:15.432Z,16.90
2019-03-16T15:07:42.907Z,17.47
2019-03-16T15:10:10.706Z,17.67
2019-03-16T15:12:39.396Z,17.43
2019-03-16T15:15:09.472Z,18.17
2019-03-16T15:17:37.638Z,18.67
2019-03-16T15:20:05.534Z,19.17
2019-03-16T15:22:40.104Z,19.43
2019-03-16T15:25:11.011Z,20.30
2019-03-16T15:27:37.726Z,19.07
2019-03-16T15:30:10.687Z,18.73
2019-03-16T15:32:38.455Z,18.83
2019-03-16T15:35:12.218Z,18.67
2019-03-16T15:37:40.047Z,16.57
2019-03-16T15:40:08.644Z,16.67
2019-03-16T15:42:36.162Z,17.10
2019-03-16T15:45:06.468Z,17.03
2019-03-16T15:47:33.901Z,16.00
2019-03-16T15:50:02.923Z,16.20
2019-03-16T15:52:30.512Z,14.47
2019-03-16T15:54:59.106Z,14.40
2019-03-16T15:57:27.385Z,14.47
2019-03-16T15:59:56.349Z,16.23
2019-03-16T16:02:24.612Z,14.50
2019-03-16T16:04:52.675Z,13.77
2019-03-16T16:07:21.333Z,14.27
2019-03-16T16:09:49.702Z,13.87
2019-03-16T16:12:17.567Z,14.07
2019-03-16T16:14:46.973Z,14.10
2019-03-16T16:17:15.199Z,15.40
2019-03-16T16:19:46.197Z,13.77
2019-03-16T16:22:13.736Z,12.53
2019-03-16T16:24:41.919Z,13.20
2019-03-16T16:27:09.927Z,13.90
2019-03-16T16:29:37.348Z,13.40
2019-03-16T16:32:05.837Z,14.20
2019-03-16T16:34:35.149Z,13.53
2019-03-16T16:37:02.973Z,12.10
2019-03-16T16:39:31.057Z,11.23
2019-03-16T16:41:59.497Z,11.80
2019-03-16T16:44:27.567Z,11.00
2019-03-16T16:46:55.801Z,10.70
2019-03-16T16:49:24.086Z,8.33
2019-03-16T16:51:52.058Z,9.10
2019-03-16T16:54:20.541Z,8.53
2019-03-16T16:56:48.414Z,9.17
2019-03-16T16:59:16.463Z,10.00
2019-03-16T17:01:45.727Z,10.83
2019-03-16T17:04:13.310Z,11.67
2019-03-16T17:06:41.205Z,11.03
2019-03-16T17:12:37.502Z,9.90
2019-03-16T17:15:05.730Z,9.77
2019-03-16T17:17:42.757Z,9.47
2019-03-16T17:20:14.887Z,7.03
2019-03-16T17:22:44.033Z,6.53
2019-03-16T17:25:12.596Z,6.60
2019-03-16T17:27:43.227Z,6.90
2019-03-16T17:30:13.572Z,6.70
2019-03-16T17:32:42.141Z,6.43
2019-03-16T17:35:10.093Z,7.13
2019-03-16T17:37:37.974Z,6.30
2019-03-16T17:40:08.180Z,7.03
2019-03-16T17:42:36.090Z,7.27
2019-03-16T17:45:04.110Z,6.33
2019-03-16T17:47:32.059Z,8.10
2019-03-16T17:50:00.359Z,6.83
2019-03-16T17:52:28.211Z,6.70
2019-03-16T17:54:55.714Z,6.57
2019-03-16T17:57:23.570Z,6.40
2019-03-16T17:59:51.636Z,6.23
2019-03-16T18:02:19.569Z,6.13
2019-03-16T18:04:47.047Z,11.90
2019-03-16T18:07:15.553Z,7.30
2019-03-16T18:09:43.486Z,6.70
2019-03-16T18:12:11.502Z,8.77
2019-03-16T18:14:39.487Z,6.33
2019-03-16T18:17:08.299Z,5.87
2019-03-16T18:19:36.202Z,6.30
2019-03-16T18:22:04.114Z,5.13
2019-03-16T18:24:31.713Z,5.30
2019-03-16T18:26:59.174Z,4.63
2019-03-16T18:29:27.285Z,4.77
2019-03-16T18:32:07.271Z,4.83
2019-03-16T18:34:26.111Z,4.57
2019-03-16T18:36:54.114Z,4.47
2019-03-16T18:39:22.111Z,4.00
2019-03-16T18:41:50.234Z,3.60
2019-03-16T18:44:18.579Z,3.40
2019-03-16T18:46:47.391Z,3.20
2019-03-16T18:49:15.142Z,3.80
2019-03-16T18:51:44.905Z,3.20
2019-03-16T19:37:59.975Z,2.63
2019-03-16T19:44:11.533Z,3.23
2019-03-16T19:46:42.277Z,3.47
2019-03-16T19:49:10.994Z,2.80
2019-03-16T19:51:40.485Z,2.83
2019-03-16T19:54:09.495Z,2.60
2019-03-16T19:56:38.118Z,2.77
2019-03-16T19:59:07.469Z,2.60
2019-03-16T20:05:12.214Z,2.97
2019-03-16T20:16:36.772Z,2.67
2019-03-16T20:22:46.319Z,2.70
2019-03-16T20:32:07.205Z,2.43
2019-03-16T20:34:55.956Z,3.20
2019-03-16T20:37:35.122Z,3.07
2019-03-16T20:46:52.146Z,2.60
2019-03-16T20:52:30.078Z,2.70
2019-03-16T20:58:27.953Z,3.23
2019-03-16T21:11:29.655Z,2.93
2019-03-16T21:20:19.958Z,2.50
2019-03-16T21:22:53.459Z,3.10
2019-03-16T21:25:24.106Z,2.07
2019-03-16T21:33:49.282Z,2.97
2019-03-16T21:36:19.155Z,2.53
2019-03-16T21:38:47.764Z,2.60
2019-03-16T21:41:16.277Z,3.10
2019-03-16T21:43:55.407Z,2.30
2019-03-16T21:49:59.649Z,2.93
2019-03-16T21:52:27.781Z,2.43
2019-03-16T21:54:56.782Z,2.47
2019-03-16T21:57:26.203Z,2.90
2019-03-16T21:59:54.155Z,3.30
2019-03-16T22:02:22.312Z,3.33
2019-03-16T22:04:54.070Z,3.27
2019-03-16T22:07:20.969Z,3.57
2019-03-16T22:09:51.526Z,3.60
2019-03-16T22:12:23.202Z,3.87
2019-03-16T22:15:01.650Z,3.90
2019-03-16T22:17:29.869Z,3.70
2019-03-16T22:19:57.880Z,4.23
2019-03-16T22:22:26.343Z,3.83
2019-03-16T22:24:53.906Z,4.10
2019-03-16T22:27:22.108Z,4.60
2019-03-16T22:29:50.620Z,3.90
2019-03-16T22:45:29.721Z,4.13
2019-03-16T22:47:57.822Z,3.90
2019-03-16T22:50:28.110Z,3.87
2019-03-16T22:52:55.985Z,4.00
2019-03-16T22:55:24.745Z,3.53
2019-03-16T22:57:53.271Z,3.63
2019-03-16T23:00:23.551Z,3.30
2019-03-16T23:02:51.278Z,3.63
2019-03-16T23:05:19.726Z,4.37
2019-03-16T23:10:58.629Z,3.37
2019-03-16T23:13:26.673Z,3.60
2019-03-16T23:15:55.002Z,4.00
2019-03-16T23:21:39.108Z,3.33
2019-03-16T23:24:07.158Z,3.73
2019-03-16T23:26:38.828Z,3.60
2019-03-16T23:29:06.100Z,3.97
2019-03-16T23:31:34.537Z,4.37
2019-03-16T23:34:02.581Z,4.07
2019-03-16T23:36:30.349Z,4.17
2019-03-16T23:38:59.037Z,4.20
2019-03-16T23:41:27.348Z,4.57
2019-03-16T23:44:30.184Z,4.43
2019-03-16T23:47:17.081Z,4.40
2019-03-16T23:49:51.918Z,4.80
2019-03-16T23:52:30.302Z,5.00
2019-03-16T23:55:07.923Z,4.83
2019-03-16T23:57:56.392Z,5.37
